createdAt,value
2022-10-01T00:01:20.286Z,89.33
2022-10-01T00:03:48.615Z,89.09
2022-10-01T00:06:18.092Z,88.86
2022-10-01T00:08:48.148Z,88.90
2022-10-01T00:11:18.425Z,88.79
2022-10-01T00:13:46.401Z,88.93
2022-10-01T00:16:17.509Z,88.73
2022-10-01T00:18:46.540Z,89.46
2022-10-01T00:21:15.831Z,88.81
2022-10-01T00:23:43.773Z,88.46
2022-10-01T00:26:14.881Z,88.29
2022-10-01T00:28:45.231Z,89.11
2022-10-01T00:31:14.216Z,88.96
2022-10-01T00:33:42.080Z,89.33
2022-10-01T00:36:10.788Z,89.21
2022-10-01T00:38:40.254Z,89.14
2022-10-01T00:41:08.408Z,88.77
2022-10-01T00:43:37.669Z,88.91
2022-10-01T00:46:14.081Z,88.82
2022-10-01T00:48:49.266Z,89.04
2022-10-01T00:51:16.826Z,89.54
2022-10-01T00:53:46.026Z,89.79
2022-10-01T00:56:13.560Z,89.78
2022-10-01T00:58:41.081Z,90.22
2022-10-01T01:01:09.995Z,90.07
2022-10-01T01:03:37.907Z,90.66
2022-10-01T01:06:09.641Z,91.02
2022-10-01T01:08:37.156Z,91.46
2022-10-01T01:11:08.695Z,91.09
2022-10-01T01:13:39.113Z,91.19
2022-10-01T01:16:12.638Z,90.48
2022-10-01T01:18:43.908Z,90.42
2022-10-01T01:21:21.682Z,90.72
2022-10-01T01:24:12.142Z,91.05
2022-10-01T01:26:50.049Z,90.85
2022-10-01T01:29:23.362Z,91.17
2022-10-01T01:31:51.049Z,91.02
2022-10-01T01:34:21.946Z,91.07
2022-10-01T01:36:54.205Z,90.62
2022-10-01T01:39:22.973Z,91.00
2022-10-01T01:41:52.429Z,91.41
2022-10-01T01:44:25.173Z,90.76
2022-10-01T01:46:55.036Z,91.26
2022-10-01T01:49:22.558Z,90.76
2022-10-01T01:51:53.110Z,90.59
2022-10-01T01:54:21.390Z,90.59
2022-10-01T01:56:49.674Z,90.51
2022-10-01T01:59:19.577Z,90.51
2022-10-01T02:01:49.465Z,90.61
2022-10-01T02:04:22.179Z,90.39
2022-10-01T02:07:06.324Z,90.69
2022-10-01T02:09:36.563Z,90.22
2022-10-01T02:12:12.148Z,90.78
2022-10-01T02:14:47.367Z,90.70
2022-10-01T02:17:18.914Z,90.67
2022-10-01T02:19:52.016Z,91.48
2022-10-01T02:22:21.842Z,91.37
2022-10-01T02:24:53.515Z,91.44
2022-10-01T02:27:24.500Z,91.83
2022-10-01T02:29:52.153Z,92.07
2022-10-01T02:32:21.659Z,91.61
2022-10-01T02:34:51.091Z,91.80
2022-10-01T02:37:22.471Z,91.36
2022-10-01T02:39:50.446Z,90.61
2022-10-01T02:42:19.010Z,90.41
2022-10-01T02:44:48.172Z,90.48
2022-10-01T02:47:21.198Z,90.45
2022-10-01T02:49:49.041Z,90.29
2022-10-01T02:52:23.401Z,91.03
2022-10-01T02:54:54.700Z,91.47
2022-10-01T02:57:24.398Z,90.74
2022-10-01T02:59:52.328Z,90.79
2022-10-01T03:02:22.497Z,92.00
2022-10-01T03:04:50.074Z,92.56
2022-10-01T03:07:18.593Z,92.54
2022-10-01T03:09:46.206Z,92.41
2022-10-01T03:12:13.763Z,92.79
2022-10-01T03:14:41.471Z,92.55
2022-10-01T03:17:09.196Z,93.15
2022-10-01T03:19:38.160Z,93.49
2022-10-01T03:22:05.992Z,93.25
2022-10-01T03:24:33.574Z,93.15
2022-10-01T03:27:01.114Z,93.28
2022-10-01T03:29:28.653Z,92.95
2022-10-01T03:31:56.249Z,92.77
2022-10-01T03:34:24.114Z,92.61
2022-10-01T03:36:53.149Z,93.51
2022-10-01T03:39:20.831Z,93.68
2022-10-01T03:41:48.428Z,93.30
2022-10-01T03:44:15.915Z,93.49
2022-10-01T03:46:43.746Z,93.55
2022-10-01T03:49:11.455Z,93.49
2022-10-01T03:51:38.971Z,93.68
2022-10-01T03:54:09.083Z,94.41
2022-10-01T03:56:37.724Z,94.46
2022-10-01T03:59:05.291Z,94.72
2022-10-01T04:01:33.153Z,94.41
2022-10-01T04:04:01.272Z,94.58
2022-10-01T04:06:28.756Z,95.28
2022-10-01T04:08:56.238Z,95.65
2022-10-01T04:11:25.680Z,95.84
2022-10-01T04:13:53.129Z,96.26
2022-10-01T04:16:20.623Z,96.80
2022-10-01T04:18:48.216Z,96.50
2022-10-01T04:21:16.231Z,96.53
2022-10-01T04:23:43.796Z,96.28
2022-10-01T04:26:11.243Z,96.81
2022-10-01T04:28:40.036Z,97.18
2022-10-01T04:31:25.934Z,96.69
2022-10-01T04:33:53.940Z,96.83
2022-10-01T04:36:21.975Z,97.03
2022-10-01T04:38:51.968Z,96.88
2022-10-01T04:41:19.507Z,97.23
2022-10-01T04:43:48.461Z,97.30
2022-10-01T04:46:16.675Z,97.01
2022-10-01T04:48:44.181Z,97.41
2022-10-01T04:51:11.728Z,97.51
2022-10-01T04:53:39.247Z,97.82
2022-10-01T04:56:07.250Z,97.21
2022-10-01T04:58:34.908Z,97.31
2022-10-01T05:01:04.066Z,97.42
2022-10-01T05:03:31.599Z,97.83
2022-10-01T05:05:59.150Z,97.56
2022-10-01T05:08:27.073Z,97.14
2022-10-01T05:10:54.607Z,97.93
2022-10-01T05:13:22.213Z,97.39
2022-10-01T05:15:52.182Z,97.51
2022-10-01T05:18:21.210Z,97.86
2022-10-01T05:20:48.700Z,97.56
2022-10-01T05:23:16.193Z,97.93
2022-10-01T05:25:46.963Z,97.63
2022-10-01T05:28:18.452Z,97.21
2022-10-01T05:30:49.537Z,97.30
2022-10-01T05:33:17.005Z,97.57
2022-10-01T05:35:45.875Z,97.69
2022-10-01T05:38:13.847Z,97.31
2022-10-01T05:40:41.335Z,98.34
2022-10-01T05:43:08.873Z,97.75
2022-10-01T05:45:36.417Z,97.74
2022-10-01T05:48:05.699Z,98.17
2022-10-01T05:50:34.956Z,98.27
2022-10-01T05:53:03.908Z,97.41
2022-10-01T05:55:34.536Z,97.43
2022-10-01T05:58:06.909Z,98.19
2022-10-01T06:00:35.765Z,97.93
2022-10-01T06:03:04.413Z,97.63
2022-10-01T06:05:34.301Z,98.07
2022-10-01T06:08:02.599Z,98.07
2022-10-01T06:10:31.387Z,97.92
2022-10-01T06:13:00.229Z,98.56
2022-10-01T06:15:28.669Z,97.90
2022-10-01T06:17:56.338Z,97.86
2022-10-01T06:20:24.047Z,98.04
2022-10-01T06:22:55.727Z,98.65
2022-10-01T06:25:23.728Z,99.20
2022-10-01T06:27:55.351Z,98.83
2022-10-01T06:30:23.290Z,98.88
2022-10-01T06:32:50.869Z,99.27
2022-10-01T06:35:20.286Z,98.52
2022-10-01T06:37:47.931Z,98.79
2022-10-01T06:40:15.647Z,99.28
2022-10-01T06:42:48.272Z,98.63
2022-10-01T06:45:17.960Z,98.80
2022-10-01T06:47:45.844Z,98.67
2022-10-01T06:50:13.490Z,98.78
2022-10-01T06:52:49.929Z,98.92
2022-10-01T06:55:17.985Z,99.37
2022-10-01T06:57:45.893Z,99.26
2022-10-01T07:00:14.327Z,99.39
2022-10-01T07:02:43.379Z,99.75
2022-10-01T07:05:12.341Z,99.00
2022-10-01T07:07:40.084Z,99.17
2022-10-01T07:10:10.364Z,99.26
2022-10-01T07:12:38.612Z,99.16
2022-10-01T07:15:07.400Z,98.87
2022-10-01T07:17:35.259Z,99.17
2022-10-01T07:20:04.699Z,99.31
2022-10-01T07:22:32.367Z,99.49
2022-10-01T07:25:00.022Z,99.32
2022-10-01T07:27:27.697Z,98.69
2022-10-01T07:29:58.981Z,98.98
2022-10-01T07:32:27.068Z,99.15
2022-10-01T07:34:54.745Z,99.40
2022-10-01T07:37:24.023Z,99.21
2022-10-01T07:39:52.179Z,98.95
2022-10-01T07:42:21.477Z,99.30
2022-10-01T07:44:49.180Z,98.99
2022-10-01T07:47:16.899Z,99.08
2022-10-01T07:49:44.621Z,99.39
2022-10-01T07:52:13.530Z,98.98
2022-10-01T07:54:43.139Z,98.93
2022-10-01T07:57:10.785Z,99.51
2022-10-01T07:59:40.407Z,99.14
2022-10-01T08:02:13.859Z,99.49
2022-10-01T08:04:59.350Z,99.10
2022-10-01T08:07:27.082Z,98.71
2022-10-01T08:09:57.789Z,99.10
2022-10-01T08:12:30.291Z,99.27
2022-10-01T08:14:57.839Z,98.88
2022-10-01T08:17:29.390Z,99.30
2022-10-01T08:19:57.199Z,99.08
2022-10-01T08:22:24.800Z,99.60
2022-10-01T08:24:52.360Z,99.43
2022-10-01T08:27:21.206Z,99.50
2022-10-01T08:29:48.707Z,98.87
2022-10-01T08:32:16.314Z,99.51
2022-10-01T08:34:43.891Z,98.72
2022-10-01T08:37:11.423Z,98.81
2022-10-01T08:39:38.944Z,99.39
2022-10-01T08:42:11.340Z,98.86
2022-10-01T08:44:42.501Z,98.93
2022-10-01T08:47:15.844Z,98.94
2022-10-01T08:49:45.885Z,98.28
2022-10-01T08:52:17.673Z,98.90
2022-10-01T08:54:47.961Z,98.86
2022-10-01T08:57:16.917Z,98.51
2022-10-01T08:59:47.827Z,98.51
2022-10-01T09:02:20.794Z,98.39
2022-10-01T09:04:49.332Z,98.78
2022-10-01T09:07:28.532Z,98.61
2022-10-01T09:09:59.966Z,99.12
2022-10-01T09:12:33.110Z,99.28
2022-10-01T09:15:15.367Z,98.63
2022-10-01T09:17:54.445Z,98.84
2022-10-01T09:20:26.759Z,99.50
2022-10-01T09:23:06.191Z,99.46
2022-10-01T09:25:36.096Z,99.59
2022-10-01T09:28:11.368Z,99.13
2022-10-01T09:30:42.665Z,99.11
2022-10-01T09:33:13.813Z,98.95
2022-10-01T09:35:45.213Z,98.62
2022-10-01T09:38:18.438Z,98.64
2022-10-01T09:40:51.001Z,99.48
2022-10-01T09:43:21.844Z,99.43
2022-10-01T09:45:51.403Z,98.79
2022-10-01T09:48:25.955Z,99.01
2022-10-01T09:50:58.186Z,99.03
2022-10-01T09:53:32.097Z,99.00
2022-10-01T09:56:01.640Z,99.50
2022-10-01T09:58:29.970Z,99.24
2022-10-01T10:00:59.838Z,99.38
2022-10-01T10:03:30.794Z,98.41
2022-10-01T10:06:00.311Z,98.68
2022-10-01T10:08:29.754Z,98.33
2022-10-01T10:11:00.514Z,98.62
2022-10-01T10:13:34.791Z,98.54
2022-10-01T10:16:10.841Z,98.90
2022-10-01T10:18:40.143Z,98.62
2022-10-01T10:21:15.005Z,98.80
2022-10-01T10:23:51.157Z,98.82
2022-10-01T10:26:21.725Z,98.39
2022-10-01T10:28:49.634Z,98.33
2022-10-01T10:31:21.130Z,99.02
2022-10-01T10:33:54.066Z,99.10
2022-10-01T10:36:29.959Z,98.45
2022-10-01T10:38:58.433Z,98.75
2022-10-01T10:41:27.062Z,98.58
2022-10-01T10:44:00.513Z,98.29
2022-10-01T10:46:32.115Z,98.96
2022-10-01T10:49:05.109Z,99.11
2022-10-01T10:51:53.924Z,98.15
2022-10-01T10:54:25.141Z,98.74
2022-10-01T10:57:02.082Z,98.29
2022-10-01T10:59:32.626Z,98.18
2022-10-01T11:02:03.308Z,99.03
2022-10-01T11:04:39.103Z,98.53
2022-10-01T11:07:07.116Z,98.37
2022-10-01T11:09:45.887Z,98.35
2022-10-01T11:12:21.760Z,98.10
2022-10-01T11:14:59.722Z,97.88
2022-10-01T11:17:41.941Z,98.18
2022-10-01T11:20:22.237Z,97.88
2022-10-01T11:22:57.338Z,97.48
2022-10-01T11:25:34.716Z,98.26
2022-10-01T11:28:12.604Z,98.14
2022-10-01T11:30:47.048Z,98.60
2022-10-01T11:33:21.995Z,98.65
2022-10-01T11:35:56.085Z,98.85
2022-10-01T11:38:39.392Z,98.59
2022-10-01T11:41:18.987Z,98.57
2022-10-01T11:43:52.406Z,98.46
2022-10-01T11:46:32.081Z,98.61
2022-10-01T11:49:10.076Z,98.32
2022-10-01T11:51:42.290Z,98.42
2022-10-01T11:54:13.053Z,98.68
2022-10-01T11:57:01.248Z,98.43
2022-10-01T11:59:36.525Z,98.32
2022-10-01T12:02:10.258Z,98.34
2022-10-01T12:04:40.742Z,97.60
2022-10-01T12:07:12.364Z,98.04
2022-10-01T12:09:48.639Z,97.16
2022-10-01T12:12:19.702Z,97.41
2022-10-01T12:14:53.052Z,97.49
2022-10-01T12:17:24.813Z,97.72
2022-10-01T12:19:56.196Z,97.71
2022-10-01T12:22:25.633Z,97.51
2022-10-01T12:24:53.820Z,97.26
2022-10-01T12:27:34.821Z,97.18
2022-10-01T12:30:05.115Z,97.24
2022-10-01T12:32:42.108Z,96.68
2022-10-01T12:35:21.702Z,96.49
2022-10-01T12:38:00.826Z,96.29
2022-10-01T12:40:32.636Z,96.63
2022-10-01T12:43:28.506Z,96.34
2022-10-01T12:46:02.313Z,96.15
2022-10-01T12:48:33.018Z,96.09
2022-10-01T12:51:16.547Z,96.25
2022-10-01T12:53:47.532Z,96.11
2022-10-01T12:56:18.085Z,95.61
2022-10-01T12:58:56.145Z,95.68
2022-10-01T13:01:35.326Z,95.69
2022-10-01T13:04:19.921Z,95.08
2022-10-01T13:07:00.765Z,95.07
2022-10-01T13:09:34.598Z,94.45
2022-10-01T13:12:13.871Z,92.87
2022-10-01T13:14:44.373Z,94.04
2022-10-01T13:17:17.197Z,93.33
2022-10-01T13:19:48.795Z,91.99
2022-10-01T13:22:28.622Z,90.15
2022-10-01T13:25:01.595Z,89.88
2022-10-01T13:27:36.408Z,90.98
2022-10-01T13:30:07.578Z,90.36
2022-10-01T13:32:36.291Z,91.43
2022-10-01T13:35:24.113Z,91.37
2022-10-01T13:37:53.257Z,90.42
2022-10-01T13:40:24.857Z,89.82
2022-10-01T13:42:53.437Z,89.57
2022-10-01T13:45:28.509Z,88.99
2022-10-01T13:48:14.261Z,89.17
2022-10-01T13:50:43.262Z,89.24
2022-10-01T13:53:17.984Z,89.40
2022-10-01T13:55:47.781Z,89.28
2022-10-01T13:58:33.834Z,88.96
2022-10-01T14:01:02.967Z,88.27
2022-10-01T14:03:39.142Z,86.94
2022-10-01T14:06:09.202Z,86.67
2022-10-01T14:08:43.557Z,86.84
2022-10-01T14:11:29.476Z,87.97
2022-10-01T14:14:17.415Z,86.35
2022-10-01T14:16:47.003Z,85.06
2022-10-01T14:19:19.863Z,86.73
2022-10-01T14:21:56.679Z,85.38
2022-10-01T14:24:31.691Z,84.44
2022-10-01T14:27:02.176Z,84.37
2022-10-01T14:29:41.093Z,83.28
2022-10-01T14:32:18.612Z,83.83
2022-10-01T14:34:53.881Z,83.44
2022-10-01T14:37:21.752Z,83.61
2022-10-01T14:40:03.364Z,84.59
2022-10-01T14:42:31.069Z,84.24
2022-10-01T14:44:58.687Z,84.10
2022-10-01T14:47:27.889Z,84.32
2022-10-01T14:49:56.067Z,82.01
2022-10-01T14:52:25.567Z,82.94
2022-10-01T14:54:58.022Z,83.52
2022-10-01T14:57:30.459Z,83.90
2022-10-01T14:59:58.922Z,84.27
2022-10-01T15:02:27.410Z,82.53
2022-10-01T15:04:56.896Z,83.76
2022-10-01T15:07:26.000Z,83.42
2022-10-01T15:09:53.852Z,83.75
2022-10-01T15:12:23.338Z,83.65
2022-10-01T15:14:55.630Z,84.56
2022-10-01T15:17:25.950Z,83.72
2022-10-01T15:19:55.945Z,83.74
2022-10-01T15:22:26.461Z,84.87
2022-10-01T15:25:00.837Z,84.22
2022-10-01T15:27:28.924Z,84.53
2022-10-01T15:29:59.622Z,82.77
2022-10-01T15:32:28.879Z,81.94
2022-10-01T15:34:58.120Z,82.94
2022-10-01T15:37:28.552Z,82.77
2022-10-01T15:39:57.244Z,82.44
2022-10-01T15:42:26.811Z,82.37
2022-10-01T15:45:25.252Z,82.79
2022-10-01T15:47:56.939Z,82.44
2022-10-01T15:50:27.551Z,82.56
2022-10-01T15:53:03.593Z,83.05
2022-10-01T15:55:34.305Z,82.54
2022-10-01T15:58:07.847Z,82.19
2022-10-01T16:00:43.519Z,82.97
2022-10-01T16:03:24.022Z,83.33
2022-10-01T16:05:54.863Z,82.79
2022-10-01T16:08:26.122Z,83.05
2022-10-01T16:11:20.692Z,83.65
2022-10-01T16:13:49.797Z,84.43
2022-10-01T16:16:37.156Z,84.18
2022-10-01T16:19:23.063Z,84.56
2022-10-01T16:22:15.675Z,84.95
2022-10-01T16:24:45.167Z,85.35
2022-10-01T16:27:20.833Z,85.26
2022-10-01T16:29:54.184Z,85.71
2022-10-01T16:32:23.321Z,85.90
2022-10-01T16:34:52.764Z,85.46
2022-10-01T16:37:20.504Z,86.24
2022-10-01T16:39:48.202Z,86.35
2022-10-01T16:42:24.457Z,87.32
2022-10-01T16:44:52.677Z,86.90
2022-10-01T16:47:20.672Z,87.58
2022-10-01T16:49:52.525Z,87.60
2022-10-01T16:52:20.084Z,87.20
2022-10-01T16:54:48.124Z,87.09
2022-10-01T16:57:16.426Z,88.07
2022-10-01T16:59:44.278Z,87.54
2022-10-01T17:02:12.924Z,87.38
2022-10-01T17:04:41.013Z,88.24
2022-10-01T17:07:16.642Z,87.88
2022-10-01T17:09:47.179Z,88.34
2022-10-01T17:12:14.822Z,88.07
2022-10-01T17:14:42.774Z,88.59
2022-10-01T17:17:22.536Z,88.28
2022-10-01T17:19:50.246Z,88.73
2022-10-01T17:22:19.581Z,88.73
2022-10-01T17:24:47.611Z,88.60
2022-10-01T17:27:15.215Z,88.05
2022-10-01T17:29:42.906Z,88.14
2022-10-01T17:32:12.299Z,88.44
2022-10-01T17:34:43.047Z,88.63
2022-10-01T17:37:20.244Z,89.34
2022-10-01T17:39:49.813Z,89.38
2022-10-01T17:42:18.078Z,89.06
2022-10-01T17:44:46.168Z,89.01
2022-10-01T17:47:15.000Z,89.43
2022-10-01T17:49:55.896Z,89.30
2022-10-01T17:52:23.584Z,89.35
2022-10-01T17:54:52.718Z,89.38
2022-10-01T17:57:20.873Z,89.58
2022-10-01T17:59:48.535Z,89.30
2022-10-01T18:02:40.528Z,88.79
2022-10-01T18:05:09.276Z,87.82
2022-10-01T18:07:38.976Z,87.52
2022-10-01T18:10:10.167Z,88.01
2022-10-01T18:12:38.482Z,88.16
2022-10-01T18:15:06.943Z,87.88
2022-10-01T18:17:36.333Z,87.98
2022-10-01T18:20:05.444Z,88.28
2022-10-01T18:22:33.884Z,87.80
2022-10-01T18:25:03.468Z,87.51
2022-10-01T18:27:32.518Z,87.63
2022-10-01T18:30:00.175Z,87.22
2022-10-01T18:32:32.815Z,87.19
2022-10-01T18:35:01.748Z,87.33
2022-10-01T18:37:40.004Z,87.38
2022-10-01T18:40:12.005Z,87.51
2022-10-01T18:42:51.486Z,86.99
2022-10-01T18:45:34.243Z,86.64
2022-10-01T18:48:23.731Z,86.47
2022-10-01T18:50:57.473Z,87.12
2022-10-01T18:53:38.921Z,87.31
2022-10-01T18:56:26.376Z,87.45
2022-10-01T18:59:16.742Z,87.42
2022-10-01T19:01:53.689Z,87.26
2022-10-01T19:04:45.658Z,86.40
2022-10-01T19:07:23.279Z,86.48
2022-10-01T19:09:59.012Z,86.74
2022-10-01T19:12:36.963Z,86.94
2022-10-01T19:15:13.687Z,86.91
2022-10-01T19:18:06.751Z,87.18
2022-10-01T19:20:48.577Z,86.88
2022-10-01T19:23:39.410Z,86.76
2022-10-01T19:26:12.470Z,86.56
2022-10-01T19:28:50.320Z,87.32
2022-10-01T19:31:23.262Z,87.31
2022-10-01T19:33:56.915Z,87.11
2022-10-01T19:36:28.833Z,87.22
2022-10-01T19:39:02.030Z,87.14
2022-10-01T19:41:38.336Z,86.96
2022-10-01T19:44:11.163Z,87.38
2022-10-01T19:46:43.645Z,87.15
2022-10-01T19:49:17.084Z,87.61
2022-10-01T19:51:46.816Z,87.58
2022-10-01T19:54:16.958Z,87.59
2022-10-01T19:56:45.992Z,88.22
2022-10-01T19:59:15.386Z,88.44
2022-10-01T20:01:48.412Z,88.41
2022-10-01T20:04:21.211Z,88.80
2022-10-01T20:06:49.115Z,88.90
2022-10-01T20:09:23.221Z,88.76
2022-10-01T20:11:53.818Z,88.06
2022-10-01T20:14:44.779Z,87.85
2022-10-01T20:17:18.951Z,87.40
2022-10-01T20:19:51.777Z,87.58
2022-10-01T20:22:24.410Z,86.68
2022-10-01T20:24:56.781Z,86.84
2022-10-01T20:27:31.005Z,86.93
2022-10-01T20:30:04.413Z,86.78
2022-10-01T20:32:38.046Z,86.30
2022-10-01T20:35:17.426Z,86.40
2022-10-01T20:38:06.792Z,86.27
2022-10-01T20:40:39.294Z,86.69
2022-10-01T20:43:11.121Z,87.09
2022-10-01T20:45:40.740Z,86.29
2022-10-01T20:48:14.310Z,86.80
2022-10-01T20:50:44.922Z,87.28
2022-10-01T20:53:23.399Z,87.76
2022-10-01T20:55:53.774Z,87.43
2022-10-01T20:58:24.509Z,88.01
2022-10-01T21:00:55.420Z,88.05
2022-10-01T21:03:28.033Z,88.15
2022-10-01T21:05:58.241Z,88.49
2022-10-01T21:08:42.340Z,88.65
2022-10-01T21:11:14.454Z,88.38
2022-10-01T21:13:48.381Z,88.87
2022-10-01T21:16:34.863Z,89.05
2022-10-01T21:19:17.318Z,89.60
2022-10-01T21:21:55.384Z,89.39
2022-10-01T21:24:36.287Z,89.73
2022-10-01T21:27:17.243Z,89.67
2022-10-01T21:30:01.970Z,88.96
2022-10-01T21:32:51.159Z,88.88
2022-10-01T21:35:27.251Z,89.55
2022-10-01T21:38:03.787Z,89.28
2022-10-01T21:40:40.737Z,89.32
2022-10-01T21:43:15.689Z,89.43
2022-10-01T21:45:46.800Z,89.71
2022-10-01T21:48:23.433Z,88.85
2022-10-01T21:50:57.213Z,89.21
2022-10-01T21:53:57.301Z,88.86
2022-10-01T21:56:40.957Z,88.93
2022-10-01T21:59:22.313Z,89.72
2022-10-01T22:02:01.515Z,89.43
2022-10-01T22:04:35.512Z,89.26
2022-10-01T22:07:07.060Z,89.83
2022-10-01T22:09:38.531Z,89.83
2022-10-01T22:12:07.120Z,89.71
2022-10-01T22:14:37.459Z,89.71
2022-10-01T22:17:12.930Z,89.52
2022-10-01T22:19:45.755Z,89.65
2022-10-01T22:22:19.364Z,89.15
2022-10-01T22:24:48.898Z,89.47
2022-10-01T22:27:21.163Z,89.29
2022-10-01T22:29:52.461Z,90.05
2022-10-01T22:32:23.619Z,90.64
2022-10-01T22:34:55.015Z,90.98
2022-10-01T22:37:27.521Z,90.68
2022-10-01T22:39:58.900Z,90.92
2022-10-01T22:42:30.406Z,91.21
2022-10-01T22:45:01.386Z,91.29
2022-10-01T22:47:46.732Z,91.48
2022-10-01T22:50:27.273Z,91.49
2022-10-01T22:53:07.858Z,91.62
2022-10-01T22:55:41.279Z,91.86
2022-10-01T22:58:17.414Z,92.14
2022-10-01T23:00:52.846Z,92.35
2022-10-01T23:03:25.662Z,93.06
2022-10-01T23:06:00.537Z,92.90
2022-10-01T23:08:35.047Z,93.87
2022-10-01T23:11:12.797Z,93.26
2022-10-01T23:13:47.185Z,92.98
2022-10-01T23:16:19.876Z,93.25
2022-10-01T23:18:53.760Z,93.35
2022-10-01T23:21:32.583Z,93.33
2022-10-01T23:24:14.115Z,93.16
2022-10-01T23:26:47.692Z,93.43
2022-10-01T23:29:45.756Z,93.05
2022-10-01T23:32:19.420Z,93.51
2022-10-01T23:34:53.145Z,93.21
2022-10-01T23:37:36.026Z,93.80
2022-10-01T23:40:07.706Z,93.92
2022-10-01T23:42:38.074Z,93.70
2022-10-01T23:45:24.072Z,93.09
2022-10-01T23:47:58.333Z,93.35
2022-10-01T23:50:33.681Z,93.21
2022-10-01T23:53:06.113Z,94.01
2022-10-01T23:56:11.353Z,94.10
2022-10-01T23:58:46.211Z,94.31
